createdAt,value
2023-03-11T00:04:54.163Z,83.60
2023-03-11T00:09:55.957Z,84.00
2023-03-11T00:14:57.755Z,84.90
2023-03-11T00:19:59.901Z,85.60
2023-03-11T00:25:01.669Z,86.10
2023-03-11T00:30:04.337Z,87.10
2023-03-11T00:35:07.112Z,87.30
2023-03-11T00:40:13.442Z,88.60
2023-03-11T00:45:15.926Z,88.80
2023-03-11T00:50:21.384Z,89.30
2023-03-11T00:55:28.524Z,90.20
2023-03-11T01:00:31.017Z,90.20
2023-03-11T01:05:34.078Z,90.30
2023-03-11T01:10:36.506Z,91.10
2023-03-11T01:15:38.385Z,90.80
2023-03-11T01:20:40.640Z,91.20
2023-03-11T01:25:42.745Z,91.30
2023-03-11T01:30:45.346Z,91.20
2023-03-11T01:35:49.320Z,91.90
2023-03-11T01:40:52.176Z,92.30
2023-03-11T01:45:53.913Z,92.00
2023-03-11T01:50:57.034Z,92.30
2023-03-11T01:55:59.128Z,92.30
2023-03-11T02:01:02.171Z,92.30
2023-03-11T02:06:07.680Z,92.30
2023-03-11T02:11:14.206Z,92.90
2023-03-11T02:16:17.034Z,92.80
2023-03-11T02:21:31.968Z,92.80
2023-03-11T02:26:41.292Z,92.50
2023-03-11T02:31:44.405Z,92.90
2023-03-11T02:36:46.355Z,92.80
2023-03-11T02:41:48.101Z,93.10
2023-03-11T02:46:50.074Z,93.20
2023-03-11T02:51:52.423Z,93.30
2023-03-11T02:56:54.366Z,93.50
2023-03-11T03:01:56.377Z,93.30
2023-03-11T03:06:58.145Z,93.60
2023-03-11T03:11:59.899Z,94.30
2023-03-11T03:17:01.828Z,93.90
2023-03-11T03:22:03.821Z,94.40
2023-03-11T03:27:05.733Z,94.80
2023-03-11T03:32:08.175Z,95.50
2023-03-11T03:37:09.948Z,96.80
2023-03-11T03:42:11.667Z,97.90
2023-03-11T03:47:13.673Z,99.60
2023-03-11T03:52:15.464Z,99.90
2023-03-11T03:57:17.625Z,99.90
2023-03-11T04:02:19.444Z,99.90
2023-03-11T04:07:21.267Z,99.90
2023-03-11T04:12:23.001Z,99.90
2023-03-11T04:17:24.769Z,99.90
2023-03-11T04:22:26.664Z,99.90
2023-03-11T04:27:28.420Z,99.90
2023-03-11T04:32:30.210Z,99.90
2023-03-11T04:37:32.142Z,99.90
2023-03-11T04:42:34.010Z,99.90
2023-03-11T04:47:35.780Z,99.90
2023-03-11T04:52:37.532Z,99.90
2023-03-11T04:57:40.793Z,99.90
2023-03-11T05:02:43.270Z,99.90
2023-03-11T05:07:45.013Z,99.90
2023-03-11T05:12:46.821Z,99.90
2023-03-11T05:17:48.777Z,99.90
2023-03-11T05:22:51.110Z,99.90
2023-03-11T05:27:53.149Z,99.90
2023-03-11T05:32:56.373Z,99.90
2023-03-11T05:37:58.214Z,99.90
2023-03-11T05:42:59.975Z,99.90
2023-03-11T05:48:01.873Z,99.90
2023-03-11T05:53:03.662Z,99.90
2023-03-11T05:58:06.627Z,99.90
2023-03-11T06:03:09.108Z,99.90
2023-03-11T06:08:10.802Z,99.90
2023-03-11T06:13:12.618Z,99.90
2023-03-11T06:18:14.398Z,99.90
2023-03-11T06:23:16.339Z,99.90
2023-03-11T06:28:18.047Z,99.90
2023-03-11T06:33:19.797Z,99.90
2023-03-11T06:38:21.510Z,99.90
2023-03-11T06:43:23.363Z,99.90
2023-03-11T06:48:26.215Z,99.90
2023-03-11T06:53:29.296Z,99.90
2023-03-11T06:58:31.840Z,99.90
2023-03-11T07:03:33.566Z,99.90
2023-03-11T07:08:35.333Z,99.90
2023-03-11T07:13:37.501Z,99.90
2023-03-11T07:18:39.518Z,99.90
2023-03-11T07:23:42.386Z,99.90
2023-03-11T07:28:45.001Z,99.90
2023-03-11T07:33:47.540Z,99.90
2023-03-11T07:38:54.611Z,99.90
2023-03-11T07:43:58.171Z,99.90
2023-03-11T07:49:02.434Z,99.90
2023-03-11T07:54:05.408Z,99.90
2023-03-11T07:59:07.216Z,99.90
2023-03-11T08:04:14.288Z,99.90
2023-03-11T08:09:16.398Z,99.90
2023-03-11T08:14:18.391Z,99.90
2023-03-11T08:19:20.238Z,99.90
2023-03-11T08:24:22.057Z,99.90
2023-03-11T08:29:24.851Z,99.90
2023-03-11T08:34:27.688Z,99.90
2023-03-11T08:39:29.681Z,99.90
2023-03-11T08:44:31.492Z,99.90
2023-03-11T08:49:33.770Z,99.90
2023-03-11T08:54:35.598Z,99.90
2023-03-11T08:59:37.476Z,99.90
2023-03-11T09:04:39.251Z,99.90
2023-03-11T09:09:41.185Z,99.90
2023-03-11T09:14:43.852Z,99.90
2023-03-11T09:19:45.829Z,99.90
2023-03-11T09:24:47.658Z,99.90
2023-03-11T09:29:49.540Z,99.90
2023-03-11T09:34:51.389Z,99.90
2023-03-11T09:39:53.177Z,99.90
2023-03-11T09:45:04.422Z,99.90
2023-03-11T09:50:19.470Z,99.90
2023-03-11T09:55:30.358Z,99.90
2023-03-11T10:00:32.552Z,99.90
2023-03-11T10:05:34.544Z,99.90
2023-03-11T10:10:45.445Z,99.90
2023-03-11T10:15:59.568Z,99.90
2023-03-11T10:21:37.555Z,99.90
2023-03-11T10:26:47.003Z,99.90
2023-03-11T10:31:58.824Z,99.90
2023-03-11T10:37:14.239Z,99.90
2023-03-11T10:42:22.375Z,99.90
2023-03-11T10:47:25.678Z,99.90
2023-03-11T10:52:27.518Z,99.90
2023-03-11T10:57:34.497Z,99.90
2023-03-11T11:02:51.934Z,99.90
2023-03-11T11:08:14.656Z,99.90
2023-03-11T11:13:21.780Z,99.90
2023-03-11T11:18:32.064Z,99.90
2023-03-11T11:23:39.168Z,99.90
2023-03-11T11:28:41.141Z,99.90
2023-03-11T11:33:55.928Z,99.90
2023-03-11T11:38:59.717Z,99.90
2023-03-11T11:44:05.572Z,99.90
2023-03-11T11:49:23.985Z,99.90
2023-03-11T11:54:38.944Z,99.90
2023-03-11T11:59:41.002Z,99.90
2023-03-11T12:05:02.449Z,99.90
2023-03-11T12:10:26.260Z,99.90
2023-03-11T12:15:32.244Z,99.90
2023-03-11T12:20:41.502Z,99.90
2023-03-11T12:25:43.388Z,99.90
2023-03-11T12:30:58.389Z,99.90
2023-03-11T12:36:01.979Z,99.90
2023-03-11T12:41:15.609Z,99.90
2023-03-11T12:46:17.972Z,99.90
2023-03-11T12:51:34.787Z,99.90
2023-03-11T12:56:44.732Z,99.90
2023-03-11T13:01:58.729Z,99.90
2023-03-11T13:07:22.520Z,99.90
2023-03-11T13:12:42.376Z,99.90
2023-03-11T13:18:01.021Z,99.90
2023-03-11T13:23:02.726Z,99.90
2023-03-11T13:28:27.388Z,99.90
2023-03-11T13:33:50.535Z,99.90
2023-03-11T13:39:05.281Z,99.90
2023-03-11T13:44:22.293Z,99.90
2023-03-11T13:49:27.206Z,99.90
2023-03-11T13:54:38.073Z,99.90
2023-03-11T13:59:39.875Z,99.90
2023-03-11T14:04:49.038Z,99.90
2023-03-11T14:09:50.805Z,99.90
2023-03-11T14:15:00.903Z,99.90
2023-03-11T14:20:07.329Z,99.90
2023-03-11T14:25:11.154Z,99.90
2023-03-11T14:30:23.178Z,99.90
2023-03-11T14:35:25.330Z,99.90
2023-03-11T14:40:29.784Z,99.90
2023-03-11T14:45:36.423Z,99.90
2023-03-11T14:50:39.060Z,99.90
2023-03-11T14:55:51.920Z,99.90
2023-03-11T15:01:07.261Z,99.90
2023-03-11T15:06:14.071Z,99.90
2023-03-11T15:11:16.507Z,99.90
2023-03-11T15:16:31.000Z,99.90
2023-03-11T15:21:33.018Z,99.90
2023-03-11T15:26:38.291Z,99.90
2023-03-11T15:31:40.851Z,99.90
2023-03-11T15:37:02.077Z,99.90
2023-03-11T15:42:06.963Z,99.90
2023-03-11T15:47:15.040Z,99.90
2023-03-11T15:52:20.107Z,99.90
2023-03-11T15:57:26.652Z,99.90
2023-03-11T16:02:30.947Z,99.90
2023-03-11T16:07:39.632Z,99.90
2023-03-11T16:12:42.837Z,99.90
2023-03-11T16:17:49.782Z,99.90
2023-03-11T16:22:55.088Z,99.90
2023-03-11T16:27:57.855Z,99.90
2023-03-11T16:33:01.552Z,99.90
2023-03-11T16:38:04.776Z,99.90
2023-03-11T16:43:10.087Z,99.90
2023-03-11T16:48:11.842Z,99.90
2023-03-11T16:53:16.125Z,99.90
2023-03-11T16:58:18.009Z,99.90
2023-03-11T17:03:21.718Z,99.90
2023-03-11T17:08:25.239Z,99.90
2023-03-11T17:13:27.105Z,99.90
2023-03-11T17:18:29.300Z,99.90
2023-03-11T17:23:31.004Z,99.90
2023-03-11T17:28:34.821Z,99.90
2023-03-11T17:33:36.659Z,99.90
2023-03-11T17:38:38.766Z,99.90
2023-03-11T17:43:40.905Z,99.90
2023-03-11T17:48:47.330Z,99.90
2023-03-11T17:53:49.775Z,99.90
2023-03-11T17:58:51.761Z,99.90
2023-03-11T18:03:54.078Z,99.90
2023-03-11T18:08:56.078Z,99.90
2023-03-11T18:13:58.604Z,99.90
2023-03-11T18:19:00.364Z,99.90
2023-03-11T18:24:02.204Z,99.90
2023-03-11T18:29:04.377Z,99.90
2023-03-11T18:34:13.254Z,99.90
2023-03-11T18:39:15.228Z,99.90
2023-03-11T18:44:17.402Z,99.90
2023-03-11T18:49:19.229Z,99.90
2023-03-11T18:54:21.247Z,99.90
2023-03-11T18:59:23.498Z,99.90
2023-03-11T19:04:25.327Z,99.90
2023-03-11T19:09:27.248Z,99.90
2023-03-11T19:14:29.304Z,99.90
2023-03-11T19:19:33.051Z,99.90
2023-03-11T19:24:34.762Z,99.90
2023-03-11T19:29:36.559Z,99.90
2023-03-11T19:34:39.393Z,99.90
2023-03-11T19:39:41.234Z,99.90
2023-03-11T19:44:42.985Z,99.90
2023-03-11T19:49:44.794Z,99.90
2023-03-11T19:54:46.718Z,99.90
2023-03-11T19:59:48.603Z,99.90
2023-03-11T20:04:50.485Z,99.90
2023-03-11T20:09:52.393Z,99.90
2023-03-11T20:14:54.155Z,99.90
2023-03-11T20:19:56.528Z,99.90
2023-03-11T20:24:58.460Z,99.90
2023-03-11T20:30:00.630Z,99.90
2023-03-11T20:35:02.663Z,99.90
2023-03-11T20:40:06.629Z,99.90
2023-03-11T20:45:09.266Z,99.90
2023-03-11T20:50:12.474Z,99.90
2023-03-11T20:55:14.524Z,99.90
2023-03-11T21:00:16.535Z,99.90
2023-03-11T21:05:18.519Z,99.90
2023-03-11T21:10:20.588Z,99.90
2023-03-11T21:15:22.587Z,99.90
2023-03-11T21:20:25.209Z,99.90
2023-03-11T21:25:28.508Z,99.90
2023-03-11T21:30:30.649Z,99.90
2023-03-11T21:35:32.445Z,99.90
2023-03-11T21:40:34.711Z,99.90
2023-03-11T21:45:36.721Z,99.90
2023-03-11T21:50:39.214Z,99.90
2023-03-11T21:55:42.168Z,99.90
2023-03-11T22:00:44.737Z,99.90
2023-03-11T22:05:46.696Z,99.90
2023-03-11T22:10:48.739Z,99.90
2023-03-11T22:15:50.834Z,99.90
2023-03-11T22:20:52.698Z,99.90
2023-03-11T22:25:54.598Z,99.90
2023-03-11T22:30:56.592Z,99.90
2023-03-11T22:36:00.222Z,99.90
2023-03-11T22:41:07.631Z,99.90
2023-03-11T22:46:09.651Z,99.90
2023-03-11T22:51:11.572Z,99.90
2023-03-11T22:56:15.632Z,99.90
2023-03-11T23:01:17.577Z,99.90
2023-03-11T23:06:20.723Z,99.90
2023-03-11T23:11:23.358Z,99.90
2023-03-11T23:16:26.239Z,99.90
2023-03-11T23:21:32.465Z,99.90
2023-03-11T23:26:35.366Z,99.90
2023-03-11T23:31:37.136Z,99.90
2023-03-11T23:36:38.872Z,99.90
2023-03-11T23:41:40.873Z,99.90
2023-03-11T23:46:42.651Z,99.90
2023-03-11T23:51:44.361Z,99.90
2023-03-11T23:56:46.093Z,99.90
